createdAt,value
2022-10-06T00:01:04.997Z,6.40
2022-10-06T00:03:32.800Z,4.20
2022-10-06T00:06:01.434Z,3.70
2022-10-06T00:08:31.196Z,5.17
2022-10-06T00:10:58.766Z,8.87
2022-10-06T00:13:26.439Z,5.93
2022-10-06T00:15:54.230Z,12.93
2022-10-06T00:18:23.439Z,11.27
2022-10-06T00:20:55.950Z,4.87
2022-10-06T00:23:23.495Z,6.13
2022-10-06T00:25:51.205Z,7.83
2022-10-06T00:28:18.788Z,4.37
2022-10-06T00:30:46.933Z,5.63
2022-10-06T00:33:17.334Z,12.63
2022-10-06T00:35:46.567Z,8.40
2022-10-06T00:38:15.969Z,9.47
2022-10-06T00:40:45.234Z,94.20
2022-10-06T00:43:43.787Z,37.90
2022-10-06T00:46:15.409Z,44.93
2022-10-06T00:48:43.615Z,42.03
2022-10-06T00:51:12.740Z,13.43
2022-10-06T00:53:40.247Z,31.77
2022-10-06T00:56:07.676Z,6.10
2022-10-06T00:58:35.311Z,10.17
2022-10-06T01:01:04.022Z,17.13
2022-10-06T01:03:34.545Z,9.50
2022-10-06T01:06:03.638Z,5.27
2022-10-06T01:08:33.865Z,5.10
2022-10-06T01:11:01.861Z,4.50
2022-10-06T01:13:30.157Z,3.97
2022-10-06T01:16:04.870Z,3.40
2022-10-06T01:18:34.073Z,5.20
2022-10-06T01:21:07.891Z,6.53
2022-10-06T01:23:37.525Z,6.00
2022-10-06T01:26:09.957Z,8.17
2022-10-06T01:28:38.632Z,5.17
2022-10-06T01:31:08.875Z,4.50
2022-10-06T01:33:36.470Z,5.13
2022-10-06T01:36:04.607Z,6.30
2022-10-06T01:38:32.583Z,4.00
2022-10-06T01:41:01.520Z,4.23
2022-10-06T01:43:29.067Z,4.23
2022-10-06T01:45:57.661Z,5.40
2022-10-06T01:48:26.707Z,4.93
2022-10-06T01:50:54.665Z,4.10
2022-10-06T01:53:22.762Z,3.63
2022-10-06T01:55:50.161Z,3.90
2022-10-06T01:58:18.907Z,6.60
2022-10-06T02:00:46.439Z,5.80
2022-10-06T02:03:13.849Z,4.40
2022-10-06T02:05:41.238Z,4.23
2022-10-06T02:08:09.592Z,4.13
2022-10-06T02:10:37.053Z,5.40
2022-10-06T02:13:05.098Z,3.80
2022-10-06T02:15:34.044Z,3.80
2022-10-06T02:18:01.443Z,6.13
2022-10-06T02:20:28.892Z,5.37
2022-10-06T02:22:56.285Z,3.30
2022-10-06T02:25:23.708Z,4.73
2022-10-06T02:27:51.356Z,6.13
2022-10-06T02:30:18.830Z,6.03
2022-10-06T02:32:47.538Z,4.23
2022-10-06T02:35:15.060Z,3.63
2022-10-06T02:37:42.554Z,4.23
2022-10-06T02:40:10.964Z,4.93
2022-10-06T02:42:39.696Z,4.80
2022-10-06T02:45:07.874Z,4.37
2022-10-06T02:47:36.912Z,6.50
2022-10-06T02:50:07.995Z,7.07
2022-10-06T02:52:37.956Z,5.23
2022-10-06T02:55:07.084Z,5.17
2022-10-06T02:57:34.511Z,5.60
2022-10-06T03:00:01.886Z,4.37
2022-10-06T03:02:30.914Z,4.10
2022-10-06T03:04:58.417Z,5.13
2022-10-06T03:07:27.136Z,7.43
2022-10-06T03:09:55.255Z,5.43
2022-10-06T03:12:23.079Z,4.77
2022-10-06T03:14:50.500Z,6.23
2022-10-06T03:17:17.888Z,3.87
2022-10-06T03:19:45.263Z,5.10
2022-10-06T03:22:12.651Z,3.80
2022-10-06T03:24:41.369Z,3.90
2022-10-06T03:27:08.756Z,5.33
2022-10-06T03:29:36.182Z,4.63
2022-10-06T03:32:03.837Z,3.83
2022-10-06T03:34:31.287Z,4.20
2022-10-06T03:36:58.886Z,4.00
2022-10-06T03:39:26.383Z,8.10
2022-10-06T03:41:55.256Z,4.10
2022-10-06T03:44:22.858Z,3.57
2022-10-06T03:46:51.274Z,3.47
2022-10-06T03:49:18.757Z,3.93
2022-10-06T03:51:46.191Z,3.60
2022-10-06T03:54:14.979Z,3.33
2022-10-06T03:56:43.285Z,4.60
2022-10-06T03:59:13.845Z,3.57
2022-10-06T04:01:43.539Z,4.67
2022-10-06T04:04:12.248Z,4.07
2022-10-06T04:06:42.754Z,4.20
2022-10-06T04:09:15.521Z,5.80
2022-10-06T04:11:44.723Z,3.67
2022-10-06T04:14:15.777Z,3.47
2022-10-06T04:16:44.795Z,4.90
2022-10-06T04:19:13.816Z,4.00
2022-10-06T04:21:43.314Z,3.53
2022-10-06T04:24:11.695Z,3.77
2022-10-06T04:26:41.251Z,3.83
2022-10-06T04:29:08.968Z,3.63
2022-10-06T04:31:39.186Z,2.63
2022-10-06T04:34:08.154Z,3.97
2022-10-06T04:36:39.633Z,2.10
2022-10-06T04:39:08.142Z,1.60
2022-10-06T04:41:37.404Z,1.70
2022-10-06T04:44:06.066Z,3.27
2022-10-06T04:46:43.277Z,2.73
2022-10-06T04:49:19.408Z,4.90
2022-10-06T04:51:48.499Z,1.77
2022-10-06T04:54:15.967Z,4.80
2022-10-06T04:56:43.475Z,3.43
2022-10-06T04:59:10.871Z,3.33
2022-10-06T05:01:38.446Z,1.90
2022-10-06T05:04:07.533Z,1.53
2022-10-06T05:06:38.468Z,1.43
2022-10-06T05:09:08.316Z,3.07
2022-10-06T05:11:36.549Z,1.63
2022-10-06T05:14:03.991Z,1.40
2022-10-06T05:16:32.084Z,1.63
2022-10-06T05:18:59.854Z,1.47
2022-10-06T05:21:29.036Z,2.37
2022-10-06T05:23:57.834Z,1.40
2022-10-06T05:26:27.169Z,2.83
2022-10-06T05:28:55.047Z,1.43
2022-10-06T05:31:24.030Z,2.10
2022-10-06T05:33:51.492Z,1.83
2022-10-06T05:36:21.245Z,3.13
2022-10-06T05:38:49.049Z,3.63
2022-10-06T05:41:21.003Z,3.90
2022-10-06T05:43:48.841Z,2.90
2022-10-06T05:46:20.260Z,2.87
2022-10-06T05:48:49.080Z,2.97
2022-10-06T05:51:17.771Z,4.00
2022-10-06T05:53:45.220Z,3.07
2022-10-06T05:56:14.857Z,1.40
2022-10-06T05:58:45.326Z,3.23
2022-10-06T06:01:15.745Z,3.50
2022-10-06T06:03:44.639Z,2.93
2022-10-06T06:06:20.785Z,3.43
2022-10-06T06:08:49.168Z,2.00
2022-10-06T06:11:16.542Z,1.23
2022-10-06T06:13:45.330Z,4.53
2022-10-06T06:16:14.993Z,1.67
2022-10-06T06:18:42.502Z,2.20
2022-10-06T06:21:11.210Z,2.50
2022-10-06T06:23:40.331Z,3.03
2022-10-06T06:26:09.956Z,3.93
2022-10-06T06:28:37.613Z,2.77
2022-10-06T06:31:08.956Z,2.73
2022-10-06T06:33:38.045Z,2.30
2022-10-06T06:36:13.272Z,2.37
2022-10-06T06:38:40.658Z,1.80
2022-10-06T06:41:14.648Z,4.23
2022-10-06T06:43:42.527Z,3.33
2022-10-06T06:46:11.424Z,0.93
2022-10-06T06:48:39.164Z,4.97
2022-10-06T06:51:07.450Z,2.47
2022-10-06T06:53:35.469Z,2.13
2022-10-06T06:56:04.063Z,5.60
2022-10-06T06:58:32.811Z,3.17
2022-10-06T07:01:08.664Z,4.70
2022-10-06T07:03:56.624Z,1.80
2022-10-06T07:06:28.537Z,4.23
2022-10-06T07:08:57.599Z,2.47
2022-10-06T07:11:27.919Z,1.90
2022-10-06T07:13:57.987Z,4.53
2022-10-06T07:16:43.952Z,4.93
2022-10-06T07:19:30.883Z,3.77
2022-10-06T07:22:18.642Z,5.07
2022-10-06T07:25:04.015Z,5.90
2022-10-06T07:27:32.426Z,2.50
2022-10-06T07:29:59.920Z,6.93
2022-10-06T07:32:30.872Z,2.03
2022-10-06T07:35:00.682Z,3.43
2022-10-06T07:37:29.651Z,3.90
2022-10-06T07:39:57.101Z,4.70
2022-10-06T07:42:24.523Z,5.70
2022-10-06T07:45:05.898Z,4.47
2022-10-06T07:47:33.697Z,2.17
2022-10-06T07:50:02.423Z,7.57
2022-10-06T07:52:29.929Z,6.43
2022-10-06T07:54:58.285Z,4.47
2022-10-06T07:57:26.801Z,4.37
2022-10-06T07:59:55.023Z,3.60
2022-10-06T08:02:28.322Z,3.70
2022-10-06T08:04:57.680Z,3.80
2022-10-06T08:07:27.395Z,45.20
2022-10-06T08:09:54.783Z,68.10
2022-10-06T08:12:34.345Z,47.83
2022-10-06T08:15:07.009Z,12.00
2022-10-06T08:17:36.110Z,15.20
2022-10-06T08:20:04.544Z,12.90
2022-10-06T08:22:33.427Z,5.83
2022-10-06T08:25:06.310Z,6.90
2022-10-06T08:27:35.336Z,6.27
2022-10-06T08:30:03.477Z,6.47
2022-10-06T08:32:32.141Z,4.87
2022-10-06T08:34:59.993Z,9.07
2022-10-06T08:37:27.791Z,6.37
2022-10-06T08:39:57.000Z,8.37
2022-10-06T08:42:32.700Z,4.70
2022-10-06T08:45:03.841Z,7.37
2022-10-06T08:47:35.770Z,7.17
2022-10-06T08:50:05.855Z,7.53
2022-10-06T08:52:49.047Z,8.43
2022-10-06T08:55:31.625Z,7.50
2022-10-06T08:58:08.759Z,8.03
2022-10-06T09:00:37.955Z,7.63
2022-10-06T09:03:07.554Z,7.67
2022-10-06T09:05:35.270Z,7.20
2022-10-06T09:08:18.519Z,9.17
2022-10-06T09:11:02.685Z,5.47
2022-10-06T09:13:33.595Z,6.23
2022-10-06T09:16:07.884Z,7.57
2022-10-06T09:19:06.795Z,4.50
2022-10-06T09:21:35.357Z,5.00
2022-10-06T09:24:08.591Z,6.93
2022-10-06T09:26:43.271Z,7.23
2022-10-06T09:29:11.144Z,5.07
2022-10-06T09:31:42.169Z,6.50
2022-10-06T09:34:22.655Z,5.90
2022-10-06T09:37:02.763Z,7.33
2022-10-06T09:39:36.335Z,7.10
2022-10-06T09:42:12.370Z,4.73
2022-10-06T09:44:48.074Z,4.83
2022-10-06T09:47:35.506Z,6.37
2022-10-06T09:50:05.487Z,4.83
2022-10-06T09:52:32.934Z,6.30
2022-10-06T09:55:12.451Z,9.50
2022-10-06T09:57:49.766Z,7.43
2022-10-06T10:00:27.549Z,5.33
2022-10-06T10:02:59.523Z,6.60
2022-10-06T10:05:29.600Z,6.43
2022-10-06T10:08:04.550Z,4.83
2022-10-06T10:10:34.346Z,8.20
2022-10-06T10:13:04.284Z,3.53
2022-10-06T10:15:34.981Z,5.13
2022-10-06T10:18:04.072Z,5.87
2022-10-06T10:20:35.091Z,6.10
2022-10-06T10:23:07.216Z,5.07
2022-10-06T10:25:46.027Z,9.10
2022-10-06T10:28:29.174Z,5.73
2022-10-06T10:31:04.431Z,4.97
2022-10-06T10:33:46.184Z,8.63
2022-10-06T10:36:26.652Z,4.27
2022-10-06T10:38:56.063Z,7.80
2022-10-06T10:41:28.607Z,6.50
2022-10-06T10:44:08.263Z,6.17
2022-10-06T10:46:40.977Z,4.40
2022-10-06T10:49:13.743Z,4.53
2022-10-06T10:51:45.663Z,6.30
2022-10-06T10:54:16.607Z,4.70
2022-10-06T10:56:45.097Z,4.57
2022-10-06T10:59:20.780Z,3.67
2022-10-06T11:01:54.693Z,4.93
2022-10-06T11:04:22.241Z,7.60
2022-10-06T11:07:01.964Z,4.93
2022-10-06T11:09:38.917Z,5.90
2022-10-06T11:12:18.891Z,6.43
2022-10-06T11:14:54.458Z,4.47
2022-10-06T11:17:40.229Z,6.27
2022-10-06T11:20:22.728Z,5.67
2022-10-06T11:22:57.425Z,5.30
2022-10-06T11:25:36.656Z,6.03
2022-10-06T11:28:11.439Z,7.90
2022-10-06T11:30:52.649Z,9.60
2022-10-06T11:33:27.249Z,7.27
2022-10-06T11:35:54.840Z,3.57
2022-10-06T11:38:31.135Z,4.80
2022-10-06T11:41:10.116Z,5.40
2022-10-06T11:43:45.504Z,5.07
2022-10-06T11:46:31.146Z,7.20
2022-10-06T11:49:39.360Z,6.30
2022-10-06T11:52:56.254Z,6.53
2022-10-06T11:55:26.420Z,5.63
2022-10-06T11:58:30.236Z,5.77
2022-10-06T12:00:59.539Z,4.07
2022-10-06T12:03:49.365Z,7.27
2022-10-06T12:06:55.339Z,4.77
2022-10-06T12:09:52.021Z,8.37
2022-10-06T12:12:44.020Z,8.10
2022-10-06T12:18:20.957Z,5.87
2022-10-06T12:21:06.233Z,7.67
2022-10-06T12:23:45.232Z,6.27
2022-10-06T12:26:27.898Z,4.60
2022-10-06T12:29:01.230Z,4.83
2022-10-06T12:31:45.946Z,6.10
2022-10-06T12:34:56.806Z,5.23
2022-10-06T12:37:50.161Z,5.40
2022-10-06T12:40:50.120Z,5.60
2022-10-06T12:43:32.875Z,4.37
2022-10-06T12:46:04.153Z,4.03
2022-10-06T12:48:38.351Z,3.50
2022-10-06T12:51:19.195Z,5.90
2022-10-06T12:53:57.714Z,4.43
2022-10-06T12:56:31.773Z,3.77
2022-10-06T12:58:59.578Z,8.37
2022-10-06T13:01:28.086Z,7.03
2022-10-06T13:03:56.132Z,5.23
2022-10-06T13:06:25.514Z,5.90
2022-10-06T13:09:13.874Z,7.50
2022-10-06T13:11:41.410Z,4.23
2022-10-06T13:14:11.017Z,4.27
2022-10-06T13:16:41.540Z,4.53
2022-10-06T13:19:17.656Z,6.03
2022-10-06T13:21:45.864Z,6.03
2022-10-06T13:24:19.325Z,4.87
2022-10-06T13:26:48.204Z,9.23
2022-10-06T13:29:22.244Z,3.13
2022-10-06T13:31:52.934Z,7.10
2022-10-06T13:34:29.038Z,6.37
2022-10-06T13:36:57.378Z,4.27
2022-10-06T13:39:31.547Z,6.80
2022-10-06T13:42:03.338Z,6.73
2022-10-06T13:44:36.680Z,9.87
2022-10-06T13:47:06.776Z,11.13
2022-10-06T13:49:37.285Z,6.73
2022-10-06T13:52:15.023Z,7.33
2022-10-06T13:54:49.938Z,7.23
2022-10-06T13:57:37.326Z,8.83
2022-10-06T14:00:09.681Z,8.73
2022-10-06T14:02:37.218Z,9.43
2022-10-06T14:05:26.737Z,10.13
2022-10-06T14:07:56.864Z,4.15
2022-10-06T14:10:31.371Z,9.67
2022-10-06T14:13:01.641Z,9.10
2022-10-06T14:15:31.667Z,8.17
2022-10-06T14:18:01.825Z,5.07
2022-10-06T14:20:46.853Z,6.40
2022-10-06T14:23:33.576Z,8.93
2022-10-06T14:26:02.407Z,9.40
2022-10-06T14:28:29.835Z,8.60
2022-10-06T14:30:57.617Z,7.07
2022-10-06T14:33:25.265Z,9.37
2022-10-06T14:35:52.913Z,5.53
2022-10-06T14:38:20.640Z,6.67
2022-10-06T14:40:48.037Z,7.37
2022-10-06T14:43:16.813Z,6.07
2022-10-06T14:45:45.236Z,6.33
2022-10-06T14:48:15.201Z,4.60
2022-10-06T14:50:44.786Z,8.20
2022-10-06T14:53:14.709Z,5.70
2022-10-06T14:55:42.514Z,5.20
2022-10-06T14:58:09.900Z,10.17
2022-10-06T15:00:42.290Z,2.43
2022-10-06T15:03:09.980Z,7.97
2022-10-06T15:05:59.239Z,8.27
2022-10-06T15:08:26.106Z,5.90
2022-10-06T15:10:53.758Z,9.10
2022-10-06T15:13:21.266Z,6.27
2022-10-06T15:15:57.589Z,5.87
2022-10-06T15:18:26.081Z,4.03
2022-10-06T15:20:54.089Z,6.57
2022-10-06T15:23:21.575Z,5.87
2022-10-06T15:26:10.658Z,5.73
2022-10-06T15:28:55.418Z,4.60
2022-10-06T15:31:25.197Z,6.67
2022-10-06T15:33:53.455Z,3.07
2022-10-06T15:36:23.234Z,5.90
2022-10-06T15:38:51.135Z,6.67
2022-10-06T15:41:18.615Z,9.33
2022-10-06T15:43:57.995Z,5.67
2022-10-06T15:46:30.069Z,5.30
2022-10-06T15:49:00.876Z,5.83
2022-10-06T15:51:30.110Z,5.23
2022-10-06T15:53:58.844Z,6.30
2022-10-06T15:56:31.074Z,10.47
2022-10-06T15:58:58.779Z,6.17
2022-10-06T16:01:36.582Z,7.97
2022-10-06T16:04:11.959Z,5.70
2022-10-06T16:06:50.538Z,6.13
2022-10-06T16:09:19.623Z,5.67
2022-10-06T16:11:47.841Z,5.10
2022-10-06T16:14:16.275Z,5.10
2022-10-06T16:16:45.885Z,7.27
2022-10-06T16:19:13.679Z,8.00
2022-10-06T16:21:41.310Z,5.10
2022-10-06T16:24:08.855Z,6.13
2022-10-06T16:26:36.796Z,12.33
2022-10-06T16:29:04.923Z,7.10
2022-10-06T16:31:32.752Z,9.70
2022-10-06T16:34:01.864Z,6.93
2022-10-06T16:36:29.284Z,6.40
2022-10-06T16:38:57.029Z,5.93
2022-10-06T16:41:25.021Z,6.37
2022-10-06T16:43:54.114Z,20.60
2022-10-06T16:46:23.464Z,5.93
2022-10-06T16:48:53.020Z,6.60
2022-10-06T16:51:23.211Z,21.60
2022-10-06T16:53:52.272Z,8.13
2022-10-06T16:56:21.470Z,19.10
2022-10-06T16:58:50.540Z,10.60
2022-10-06T17:01:18.515Z,12.67
2022-10-06T17:03:46.070Z,5.73
2022-10-06T17:06:15.939Z,8.80
2022-10-06T17:08:45.707Z,8.57
2022-10-06T17:11:14.568Z,8.53
2022-10-06T17:13:44.048Z,9.07
2022-10-06T17:16:15.293Z,7.77
2022-10-06T17:18:42.914Z,15.83
2022-10-06T17:21:39.698Z,10.53
2022-10-06T17:24:04.575Z,5.40
2022-10-06T17:26:33.408Z,7.53
2022-10-06T17:29:02.535Z,10.73
2022-10-06T17:31:33.318Z,6.90
2022-10-06T17:34:00.776Z,8.43
2022-10-06T17:36:28.358Z,9.60
2022-10-06T17:38:58.627Z,5.93
2022-10-06T17:41:30.367Z,8.10
2022-10-06T17:44:00.247Z,8.60
2022-10-06T17:46:27.886Z,12.20
2022-10-06T17:48:56.834Z,8.57
2022-10-06T17:51:26.907Z,7.90
2022-10-06T17:53:56.128Z,6.90
2022-10-06T17:56:25.846Z,11.00
2022-10-06T17:58:56.960Z,5.20
2022-10-06T18:01:26.498Z,7.67
2022-10-06T18:03:55.305Z,12.37
2022-10-06T18:06:24.380Z,11.57
2022-10-06T18:08:51.749Z,9.17
2022-10-06T18:11:38.568Z,8.07
2022-10-06T18:14:09.456Z,9.37
2022-10-06T18:16:39.543Z,9.43
2022-10-06T18:19:09.144Z,10.17
2022-10-06T18:21:38.751Z,9.13
2022-10-06T18:24:08.911Z,19.03
2022-10-06T18:26:41.722Z,8.17
2022-10-06T18:29:12.254Z,8.50
2022-10-06T18:31:40.175Z,9.77
2022-10-06T18:36:56.828Z,5.70
2022-10-06T18:39:24.888Z,10.50
2022-10-06T18:41:56.481Z,6.20
2022-10-06T18:44:50.389Z,7.43
2022-10-06T18:47:35.621Z,9.50
2022-10-06T18:50:03.033Z,5.30
2022-10-06T18:52:30.442Z,8.07
2022-10-06T18:55:00.878Z,9.77
2022-10-06T18:57:29.627Z,28.67
2022-10-06T18:59:59.710Z,7.97
2022-10-06T19:02:27.426Z,6.87
2022-10-06T19:04:58.737Z,9.30
2022-10-06T19:07:31.234Z,7.27
2022-10-06T19:09:59.105Z,28.57
2022-10-06T19:12:28.885Z,49.93
2022-10-06T19:14:57.645Z,17.67
2022-10-06T19:17:26.549Z,10.13
2022-10-06T19:19:57.084Z,10.13
2022-10-06T19:22:25.342Z,10.00
2022-10-06T19:24:53.249Z,8.57
2022-10-06T19:27:24.367Z,8.40
2022-10-06T19:29:54.196Z,15.43
2022-10-06T19:32:25.265Z,8.47
2022-10-06T19:34:54.920Z,10.57
2022-10-06T19:37:22.482Z,72.17
2022-10-06T19:39:50.345Z,51.23
2022-10-06T19:42:37.584Z,18.20
2022-10-06T19:45:09.596Z,6.17
2022-10-06T19:47:37.172Z,11.43
2022-10-06T19:50:11.636Z,11.17
2022-10-06T19:52:40.260Z,8.57
2022-10-06T19:55:07.870Z,9.10
2022-10-06T19:57:35.696Z,7.77
2022-10-06T20:00:03.476Z,11.50
2022-10-06T20:02:30.934Z,10.40
2022-10-06T20:04:58.490Z,9.30
2022-10-06T20:07:27.929Z,9.53
2022-10-06T20:09:56.298Z,9.27
2022-10-06T20:12:25.231Z,9.17
2022-10-06T20:14:53.946Z,11.00
2022-10-06T20:17:23.102Z,18.37
2022-10-06T20:19:56.696Z,21.10
2022-10-06T20:22:27.300Z,12.13
2022-10-06T20:24:54.780Z,16.30
2022-10-06T20:27:22.294Z,9.17
2022-10-06T20:29:49.955Z,9.60
2022-10-06T20:32:18.746Z,10.67
2022-10-06T20:34:48.299Z,10.73
2022-10-06T20:37:15.752Z,10.13
2022-10-06T20:40:02.458Z,11.73
2022-10-06T20:42:31.230Z,17.00
2022-10-06T20:44:59.171Z,22.13
2022-10-06T20:47:26.901Z,31.57
2022-10-06T20:49:56.372Z,31.90
2022-10-06T20:52:24.186Z,28.10
2022-10-06T20:54:52.891Z,54.07
2022-10-06T20:57:20.532Z,23.67
2022-10-06T20:59:48.423Z,29.37
2022-10-06T21:02:16.008Z,29.93
2022-10-06T21:04:45.135Z,36.83
2022-10-06T21:07:13.016Z,23.70
2022-10-06T21:09:40.939Z,25.70
2022-10-06T21:12:09.815Z,48.27
2022-10-06T21:14:37.633Z,34.63
2022-10-06T21:17:05.437Z,37.77
2022-10-06T21:19:37.922Z,42.23
2022-10-06T21:22:05.743Z,18.20
2022-10-06T21:24:33.339Z,37.10
2022-10-06T21:27:00.933Z,14.73
2022-10-06T21:29:29.975Z,20.73
2022-10-06T21:31:57.662Z,38.63
2022-10-06T21:34:25.658Z,32.67
2022-10-06T21:36:53.263Z,17.17
2022-10-06T21:39:20.937Z,27.27
2022-10-06T21:41:48.441Z,69.23
2022-10-06T21:44:17.986Z,70.73
2022-10-06T21:46:49.344Z,17.10
2022-10-06T21:49:18.251Z,25.27
2022-10-06T21:51:47.332Z,10.10
2022-10-06T21:54:15.269Z,10.47
2022-10-06T21:56:42.952Z,7.53
2022-10-06T21:59:10.858Z,10.77
2022-10-06T22:01:40.445Z,9.43
2022-10-06T22:04:09.857Z,10.30
2022-10-06T22:06:37.884Z,7.97
2022-10-06T22:09:06.663Z,7.43
2022-10-06T22:11:36.502Z,12.17
2022-10-06T22:14:07.883Z,19.77
2022-10-06T22:16:36.214Z,11.50
2022-10-06T22:19:05.798Z,10.83
2022-10-06T22:21:36.887Z,8.23
2022-10-06T22:24:06.840Z,19.70
2022-10-06T22:26:37.424Z,31.97
2022-10-06T22:29:06.886Z,11.17
2022-10-06T22:31:35.120Z,12.23
2022-10-06T22:34:04.796Z,24.90
2022-10-06T22:36:34.153Z,22.63
2022-10-06T22:39:02.076Z,14.03
2022-10-06T22:41:30.346Z,23.40
2022-10-06T22:43:59.524Z,22.83
2022-10-06T22:46:28.611Z,26.80
2022-10-06T22:48:56.664Z,11.83
2022-10-06T22:51:24.940Z,12.03
2022-10-06T22:53:57.901Z,13.10
2022-10-06T22:56:27.084Z,21.33
2022-10-06T22:58:54.705Z,90.63
2022-10-06T23:01:22.532Z,15.30
2022-10-06T23:03:50.205Z,11.03
2022-10-06T23:06:18.909Z,8.77
2022-10-06T23:08:46.594Z,11.03
2022-10-06T23:11:17.190Z,14.23
2022-10-06T23:13:45.483Z,11.73
2022-10-06T23:16:14.480Z,12.37
2022-10-06T23:18:43.411Z,10.63
2022-10-06T23:21:14.028Z,11.57
2022-10-06T23:23:41.512Z,14.03
2022-10-06T23:26:11.771Z,9.33
2022-10-06T23:28:41.206Z,14.10
2022-10-06T23:31:10.963Z,9.83
2022-10-06T23:33:39.335Z,13.90
2022-10-06T23:36:08.817Z,7.73
2022-10-06T23:38:37.381Z,8.40
2022-10-06T23:41:06.119Z,12.87
2022-10-06T23:43:34.021Z,11.17
2022-10-06T23:46:03.537Z,8.27
2022-10-06T23:48:31.112Z,8.63
2022-10-06T23:51:00.356Z,10.73
2022-10-06T23:53:28.230Z,13.80
2022-10-06T23:55:55.785Z,10.00
2022-10-06T23:58:23.615Z,9.57
